Nachusa, Illinois
Current Conditions -  °F | °C
As of 12:55 AM on Sunday 26 Oct 2014 (Local Time) from KRPJ Reporting Station
Clear Clear  
Wind Chill: 40°   Ceiling: Unl
Heat Index: 40°   Visibility: 10mi
Dew Point: 33°   Wind: 3mph
Humidity: 76%   Direction: 290°WNW
Pressure: 30.02"   Gusts: NA
Location:  41.83°N, 89.39°W
Report Text: KRPJ 260555Z AUTO 29003KT 10SM CLR 04/00 A3002 RMK AO2 T00420004 10116 20039 402200039
Loading
Personal Weather Stations






























Interactive Weather Map
Tropical Storm Tracking
New forecast layout! Learn more

10-Day Weather Forecast

Advertisements
Track Severe Weather on mobile